createdAt,value
2022-08-17T00:00:43.193Z,4
2022-08-17T00:01:51.730Z,4
2022-08-17T00:03:31.992Z,4
2022-08-17T00:04:31.990Z,4
2022-08-17T00:05:32.030Z,4
2022-08-17T00:06:31.991Z,4
2022-08-17T00:07:31.995Z,4
2022-08-17T00:08:32.001Z,4
2022-08-17T00:09:31.991Z,4
2022-08-17T00:10:32.490Z,4
2022-08-17T00:11:31.998Z,4
2022-08-17T00:12:51.365Z,5
2022-08-17T00:13:32.000Z,4
2022-08-17T00:14:32.001Z,4
2022-08-17T00:15:31.996Z,4
2022-08-17T00:16:55.576Z,4
2022-08-17T00:17:32.001Z,4
2022-08-17T00:19:02.047Z,4
2022-08-17T00:19:31.999Z,4
2022-08-17T00:20:34.876Z,4
2022-08-17T00:22:00.015Z,4
2022-08-17T00:22:36.413Z,4
2022-08-17T00:23:32.010Z,4
2022-08-17T00:24:31.991Z,4
2022-08-17T00:25:32.004Z,4
2022-08-17T00:26:44.228Z,4
2022-08-17T00:27:32.004Z,4
2022-08-17T00:28:33.260Z,4
2022-08-17T00:29:32.000Z,4
2022-08-17T00:30:51.305Z,4
2022-08-17T00:31:32.010Z,4
2022-08-17T00:33:14.381Z,4
2022-08-17T00:33:32.005Z,4
2022-08-17T00:34:32.006Z,5
2022-08-17T00:35:32.004Z,4
2022-08-17T00:36:32.005Z,4
2022-08-17T00:37:32.009Z,4
2022-08-17T00:38:32.011Z,4
2022-08-17T00:39:32.111Z,4
2022-08-17T00:40:44.595Z,4
2022-08-17T00:41:32.028Z,5
2022-08-17T00:42:32.022Z,5
2022-08-17T00:43:32.018Z,4
2022-08-17T00:45:32.017Z,5
2022-08-17T00:46:32.014Z,5
2022-08-17T00:47:32.023Z,5
2022-08-17T00:48:32.018Z,4
2022-08-17T00:49:32.025Z,5
2022-08-17T00:50:32.014Z,5
2022-08-17T00:51:32.014Z,4
2022-08-17T00:52:32.020Z,5
2022-08-17T00:53:32.018Z,4
2022-08-17T00:54:32.017Z,5
2022-08-17T00:55:32.018Z,5
2022-08-17T00:56:32.014Z,5
2022-08-17T00:57:32.012Z,5
2022-08-17T00:58:36.156Z,5
2022-08-17T00:59:32.024Z,5
2022-08-17T01:00:32.026Z,5
2022-08-17T01:01:32.099Z,5
2022-08-17T01:02:34.978Z,5
2022-08-17T01:04:32.019Z,5
2022-08-17T01:05:32.035Z,5
2022-08-17T01:06:32.029Z,5
2022-08-17T01:07:32.025Z,5
2022-08-17T01:08:32.026Z,5
2022-08-17T01:09:32.025Z,5
2022-08-17T01:11:00.628Z,5
2022-08-17T01:11:32.054Z,5
2022-08-17T01:12:32.041Z,5
2022-08-17T01:13:35.491Z,5
2022-08-17T01:14:32.039Z,5
2022-08-17T01:15:32.030Z,4
2022-08-17T01:16:32.037Z,5
2022-08-17T01:17:32.032Z,5
2022-08-17T01:18:32.030Z,5
2022-08-17T01:19:32.035Z,6
2022-08-17T01:20:32.037Z,5
2022-08-17T01:21:32.041Z,5
2022-08-17T01:22:32.032Z,5
2022-08-17T01:23:32.040Z,5
2022-08-17T01:24:33.694Z,5
2022-08-17T01:25:32.038Z,5
2022-08-17T01:26:32.038Z,5
2022-08-17T01:27:32.033Z,5
2022-08-17T01:28:53.085Z,5
2022-08-17T01:29:32.039Z,5
2022-08-17T01:30:56.923Z,5
2022-08-17T01:31:32.044Z,5
2022-08-17T01:32:32.035Z,5
2022-08-17T01:33:32.033Z,5
2022-08-17T01:34:42.408Z,5
2022-08-17T01:35:32.045Z,5
2022-08-17T01:36:32.043Z,5
2022-08-17T01:37:32.045Z,5
2022-08-17T01:38:32.090Z,5
2022-08-17T01:39:32.107Z,5
2022-08-17T01:40:32.052Z,5
2022-08-17T01:41:32.048Z,5
2022-08-17T01:43:32.052Z,5
2022-08-17T01:44:32.048Z,5
2022-08-17T01:45:32.036Z,5
2022-08-17T01:46:32.040Z,6
2022-08-17T01:48:32.048Z,5
2022-08-17T01:49:32.044Z,5
2022-08-17T01:50:32.044Z,5
2022-08-17T01:51:32.052Z,5
2022-08-17T01:52:32.053Z,5
2022-08-17T01:53:32.053Z,5
2022-08-17T01:54:32.042Z,5
2022-08-17T01:56:32.058Z,5
2022-08-17T01:57:32.060Z,5
2022-08-17T01:58:32.059Z,6
2022-08-17T01:59:32.045Z,6
2022-08-17T02:00:59.455Z,5
2022-08-17T02:01:32.105Z,5
2022-08-17T02:02:32.053Z,5
2022-08-17T02:03:32.065Z,6
2022-08-17T02:04:32.066Z,6
2022-08-17T02:05:32.049Z,6
2022-08-17T02:06:45.237Z,5
2022-08-17T02:07:32.053Z,5
2022-08-17T02:09:32.050Z,5
2022-08-17T02:10:33.862Z,6
2022-08-17T02:11:32.219Z,5
2022-08-17T02:12:38.497Z,5
2022-08-17T02:13:32.055Z,5
2022-08-17T02:14:32.055Z,6
2022-08-17T02:15:32.070Z,5
2022-08-17T02:16:36.681Z,6
2022-08-17T02:17:32.061Z,6
2022-08-17T02:18:32.055Z,5
2022-08-17T02:19:32.067Z,6
2022-08-17T02:20:42.174Z,6
2022-08-17T02:22:32.061Z,5
2022-08-17T02:23:32.063Z,5
2022-08-17T02:24:59.843Z,5
2022-08-17T02:25:32.062Z,6
2022-08-17T02:26:32.075Z,5
2022-08-17T02:27:32.063Z,6
2022-08-17T02:28:32.073Z,5
2022-08-17T02:29:32.062Z,5
2022-08-17T02:31:02.154Z,6
2022-08-17T02:31:32.074Z,6
2022-08-17T02:32:32.072Z,6
2022-08-17T02:33:41.990Z,6
2022-08-17T02:34:32.067Z,6
2022-08-17T02:35:32.071Z,6
2022-08-17T02:36:32.084Z,6
2022-08-17T02:37:32.071Z,7
2022-08-17T02:38:32.073Z,7
2022-08-17T02:39:32.197Z,7
2022-08-17T02:40:36.603Z,7
2022-08-17T02:41:32.074Z,7
2022-08-17T02:42:32.080Z,7
2022-08-17T02:43:32.075Z,7
2022-08-17T02:44:39.103Z,7
2022-08-17T02:45:32.077Z,8
2022-08-17T02:46:32.078Z,8
2022-08-17T02:47:32.094Z,7
2022-08-17T02:48:32.159Z,8
2022-08-17T02:49:32.070Z,8
2022-08-17T02:50:32.075Z,9
2022-08-17T02:51:32.082Z,8
2022-08-17T02:52:43.388Z,9
2022-08-17T02:53:35.761Z,8
2022-08-17T02:54:41.340Z,8
2022-08-17T02:55:32.081Z,9
2022-08-17T02:56:32.094Z,8
2022-08-17T02:57:32.084Z,9
2022-08-17T02:58:35.217Z,8
2022-08-17T02:59:32.075Z,9
2022-08-17T03:00:32.075Z,8
2022-08-17T03:01:32.158Z,9
2022-08-17T03:02:32.086Z,7
2022-08-17T03:04:33.807Z,8
2022-08-17T03:05:32.078Z,8
2022-08-17T03:06:32.082Z,8
2022-08-17T03:08:32.084Z,8
2022-08-17T03:09:32.080Z,9
2022-08-17T03:10:32.109Z,8
2022-08-17T03:11:32.089Z,8
2022-08-17T03:12:32.090Z,8
2022-08-17T03:13:32.089Z,8
2022-08-17T03:14:32.089Z,9
2022-08-17T03:15:32.086Z,8
2022-08-17T03:16:32.097Z,8
2022-08-17T03:17:32.087Z,8
2022-08-17T03:18:32.093Z,8
2022-08-17T03:19:32.103Z,8
2022-08-17T03:20:32.088Z,8
2022-08-17T03:21:32.092Z,8
2022-08-17T03:22:37.116Z,9
2022-08-17T03:23:32.098Z,8
2022-08-17T03:24:32.097Z,8
2022-08-17T03:25:32.089Z,8
2022-08-17T03:26:32.091Z,8
2022-08-17T03:27:32.094Z,9
2022-08-17T03:28:32.107Z,8
2022-08-17T03:29:32.098Z,9
2022-08-17T03:30:32.110Z,8
2022-08-17T03:31:32.103Z,8
2022-08-17T03:32:32.095Z,8
2022-08-17T03:33:32.098Z,8
2022-08-17T03:34:32.115Z,8
2022-08-17T03:35:32.090Z,7
2022-08-17T03:36:32.104Z,8
2022-08-17T03:38:39.189Z,8
2022-08-17T03:39:32.166Z,8
2022-08-17T03:40:55.482Z,8
2022-08-17T03:41:32.113Z,7
2022-08-17T03:42:33.647Z,8
2022-08-17T03:43:32.112Z,8
2022-08-17T03:44:32.102Z,9
2022-08-17T03:45:32.113Z,8
2022-08-17T03:46:35.108Z,8
2022-08-17T03:47:32.103Z,7
2022-08-17T03:48:32.114Z,8
2022-08-17T03:49:32.106Z,8
2022-08-17T03:50:32.108Z,8
2022-08-17T03:51:33.451Z,8
2022-08-17T03:52:32.109Z,8
2022-08-17T03:53:32.104Z,8
2022-08-17T03:54:32.103Z,9
2022-08-17T03:55:36.343Z,8
2022-08-17T03:56:32.110Z,8
2022-08-17T03:57:32.117Z,8
2022-08-17T03:58:32.114Z,8
2022-08-17T03:59:32.107Z,8
2022-08-17T04:00:32.119Z,9
2022-08-17T04:01:32.177Z,8
2022-08-17T04:02:32.115Z,9
2022-08-17T04:03:32.111Z,9
2022-08-17T04:04:32.114Z,9
2022-08-17T04:05:32.120Z,8
2022-08-17T04:06:32.115Z,9
2022-08-17T04:09:32.122Z,8
2022-08-17T04:10:33.997Z,9
2022-08-17T04:11:32.111Z,9
2022-08-17T04:12:32.111Z,9
2022-08-17T04:13:32.113Z,8
2022-08-17T04:14:32.135Z,9
2022-08-17T04:15:32.122Z,9
2022-08-17T04:16:32.129Z,9
2022-08-17T04:17:32.115Z,9
2022-08-17T04:18:32.145Z,8
2022-08-17T04:19:32.109Z,8
2022-08-17T04:20:32.113Z,9
2022-08-17T04:21:32.130Z,9
2022-08-17T04:22:34.384Z,9
2022-08-17T04:23:32.201Z,9
2022-08-17T04:24:32.113Z,9
2022-08-17T04:25:32.123Z,9
2022-08-17T04:26:53.102Z,8
2022-08-17T04:27:32.133Z,8
2022-08-17T04:28:32.120Z,9
2022-08-17T04:29:54.754Z,8
2022-08-17T04:30:32.125Z,9
2022-08-17T04:31:32.120Z,9
2022-08-17T04:33:05.448Z,9
2022-08-17T04:33:32.133Z,9
2022-08-17T04:34:32.128Z,8
2022-08-17T04:35:32.122Z,9
2022-08-17T04:36:32.122Z,9
2022-08-17T04:37:32.135Z,9
2022-08-17T04:38:32.123Z,9
2022-08-17T04:39:33.859Z,9
2022-08-17T04:40:32.127Z,9
2022-08-17T04:41:32.124Z,9
2022-08-17T04:42:32.146Z,9
2022-08-17T04:43:32.125Z,9
2022-08-17T04:44:37.417Z,8
2022-08-17T04:45:32.678Z,8
2022-08-17T04:47:32.124Z,9
2022-08-17T04:48:36.198Z,9
2022-08-17T04:49:32.136Z,9
2022-08-17T04:50:32.134Z,8
2022-08-17T04:51:32.147Z,9
2022-08-17T04:52:43.302Z,10
2022-08-17T04:54:32.143Z,9
2022-08-17T04:55:32.137Z,9
2022-08-17T04:56:32.133Z,9
2022-08-17T04:57:39.491Z,9
2022-08-17T04:58:32.146Z,9
2022-08-17T04:59:32.143Z,8
2022-08-17T05:00:32.132Z,9
2022-08-17T05:02:32.143Z,9
2022-08-17T05:03:32.142Z,9
2022-08-17T05:04:34.106Z,8
2022-08-17T05:05:32.141Z,8
2022-08-17T05:06:32.140Z,8
2022-08-17T05:07:32.137Z,9
2022-08-17T05:08:32.138Z,8
2022-08-17T05:09:32.148Z,8
2022-08-17T05:10:32.141Z,9
2022-08-17T05:11:32.143Z,9
2022-08-17T05:12:32.140Z,9
2022-08-17T05:13:32.148Z,8
2022-08-17T05:14:33.031Z,8
2022-08-17T05:15:33.198Z,9
2022-08-17T05:16:32.145Z,9
2022-08-17T05:17:32.152Z,8
2022-08-17T05:18:32.149Z,9
2022-08-17T05:19:32.161Z,9
2022-08-17T05:20:32.145Z,9
2022-08-17T05:21:32.144Z,8
2022-08-17T05:22:32.154Z,8
2022-08-17T05:23:41.747Z,8
2022-08-17T05:24:38.510Z,9
2022-08-17T05:26:32.159Z,9
2022-08-17T05:27:35.197Z,9
2022-08-17T05:28:32.150Z,8
2022-08-17T05:29:35.255Z,8
2022-08-17T05:30:32.149Z,8
2022-08-17T05:31:32.151Z,8
2022-08-17T05:32:48.325Z,8
2022-08-17T05:33:32.156Z,8
2022-08-17T05:34:32.147Z,9
2022-08-17T05:35:32.152Z,8
2022-08-17T05:36:41.861Z,7
2022-08-17T05:37:32.151Z,8
2022-08-17T05:38:32.160Z,7
2022-08-17T05:39:32.185Z,7
2022-08-17T05:40:32.907Z,8
2022-08-17T05:41:32.153Z,7
2022-08-17T05:42:32.161Z,8
2022-08-17T05:43:32.158Z,8
2022-08-17T05:44:32.161Z,8
2022-08-17T05:45:54.715Z,7
2022-08-17T05:46:32.166Z,8
2022-08-17T05:47:32.163Z,8
2022-08-17T05:48:39.765Z,7
2022-08-17T05:49:32.159Z,8
2022-08-17T05:50:32.164Z,7
2022-08-17T05:51:32.166Z,7
2022-08-17T05:52:32.158Z,8
2022-08-17T05:53:32.174Z,7
2022-08-17T05:54:32.162Z,7
2022-08-17T05:55:32.167Z,7
2022-08-17T05:56:32.161Z,7
2022-08-17T05:57:32.169Z,7
2022-08-17T05:58:32.180Z,7
2022-08-17T05:59:32.165Z,7
2022-08-17T06:00:32.244Z,7
2022-08-17T06:01:32.246Z,7
2022-08-17T06:02:32.165Z,8
2022-08-17T06:03:32.161Z,7
2022-08-17T06:04:32.172Z,7
2022-08-17T06:06:32.174Z,7
2022-08-17T06:07:32.173Z,7
2022-08-17T06:08:32.176Z,7
2022-08-17T06:09:34.027Z,7
2022-08-17T06:10:32.173Z,7
2022-08-17T06:11:32.172Z,7
2022-08-17T06:12:32.169Z,7
2022-08-17T06:13:32.182Z,7
2022-08-17T06:14:32.178Z,7
2022-08-17T06:15:32.173Z,7
2022-08-17T06:16:34.231Z,7
2022-08-17T06:17:32.193Z,7
2022-08-17T06:18:32.169Z,7
2022-08-17T06:19:32.181Z,7
2022-08-17T06:20:32.169Z,7
2022-08-17T06:21:32.299Z,7
2022-08-17T06:22:32.184Z,8
2022-08-17T06:23:32.180Z,7
2022-08-17T06:25:32.186Z,6
2022-08-17T06:26:34.514Z,8
2022-08-17T06:27:32.192Z,7
2022-08-17T06:28:32.181Z,7
2022-08-17T06:29:32.183Z,8
2022-08-17T06:30:58.533Z,8
2022-08-17T06:31:32.201Z,8
2022-08-17T06:32:32.186Z,7
2022-08-17T06:33:32.189Z,7
2022-08-17T06:34:32.184Z,7
2022-08-17T06:35:33.538Z,8
2022-08-17T06:36:32.181Z,7
2022-08-17T06:37:32.198Z,8
2022-08-17T06:38:37.767Z,7
2022-08-17T06:39:32.246Z,8
2022-08-17T06:40:32.178Z,8
2022-08-17T06:41:32.193Z,7
2022-08-17T06:42:59.946Z,8
2022-08-17T06:43:32.190Z,8
2022-08-17T06:44:43.433Z,7
2022-08-17T06:45:32.188Z,7
2022-08-17T06:46:32.198Z,7
2022-08-17T06:47:32.188Z,7
2022-08-17T06:48:32.196Z,7
2022-08-17T06:49:32.195Z,7
2022-08-17T06:50:32.190Z,7
2022-08-17T06:51:32.194Z,6
2022-08-17T06:52:46.047Z,7
2022-08-17T06:53:32.200Z,8
2022-08-17T06:54:32.186Z,7
2022-08-17T06:55:37.397Z,7
2022-08-17T06:56:53.902Z,7
2022-08-17T06:57:32.197Z,7
2022-08-17T06:58:32.418Z,7
2022-08-17T06:59:54.965Z,7
2022-08-17T07:00:32.239Z,7
2022-08-17T07:01:32.300Z,7
2022-08-17T07:02:52.729Z,6
2022-08-17T07:03:32.207Z,7
2022-08-17T07:04:32.193Z,7
2022-08-17T07:06:32.205Z,7
2022-08-17T07:07:32.208Z,5
2022-08-17T07:08:34.843Z,6
2022-08-17T07:10:32.204Z,6
2022-08-17T07:11:32.204Z,5
2022-08-17T07:12:32.199Z,6
2022-08-17T07:13:32.200Z,5
2022-08-17T07:14:32.200Z,6
2022-08-17T07:15:32.202Z,5
2022-08-17T07:16:32.207Z,6
2022-08-17T07:17:46.742Z,5
2022-08-17T07:18:32.205Z,5
2022-08-17T07:19:32.200Z,5
2022-08-17T07:20:32.200Z,6
2022-08-17T07:21:32.211Z,5
2022-08-17T07:22:57.351Z,5
2022-08-17T07:23:32.212Z,5
2022-08-17T07:24:32.213Z,5
2022-08-17T07:25:32.215Z,5
2022-08-17T07:26:32.204Z,5
2022-08-17T07:27:32.204Z,5
2022-08-17T07:28:32.211Z,4
2022-08-17T07:30:37.272Z,4
2022-08-17T07:31:32.244Z,4
2022-08-17T07:32:32.208Z,4
2022-08-17T07:33:32.213Z,4
2022-08-17T07:34:32.222Z,4
2022-08-17T07:35:40.873Z,3
2022-08-17T07:36:32.220Z,3
2022-08-17T07:37:32.211Z,3
2022-08-17T07:38:32.218Z,3
2022-08-17T07:39:32.240Z,3
2022-08-17T07:40:32.314Z,3
2022-08-17T07:41:53.417Z,3
2022-08-17T07:42:33.843Z,3
2022-08-17T07:43:32.210Z,3
2022-08-17T07:44:32.213Z,3
2022-08-17T07:45:32.218Z,3
2022-08-17T07:46:32.224Z,4
2022-08-17T07:47:32.220Z,4
2022-08-17T07:48:32.233Z,3
2022-08-17T07:49:32.227Z,3
2022-08-17T07:50:32.219Z,3
2022-08-17T07:51:32.223Z,3
2022-08-17T07:52:48.227Z,3
2022-08-17T07:53:32.228Z,3
2022-08-17T07:54:32.229Z,4
2022-08-17T07:55:32.225Z,4
2022-08-17T07:57:32.239Z,4
2022-08-17T07:58:32.229Z,3
2022-08-17T07:59:33.837Z,4
2022-08-17T08:00:33.017Z,3
2022-08-17T08:01:41.730Z,4
2022-08-17T08:02:33.826Z,4
2022-08-17T08:03:32.244Z,5
2022-08-17T08:05:49.716Z,4
2022-08-17T08:06:32.237Z,4
2022-08-17T08:07:32.232Z,4
2022-08-17T08:08:32.235Z,4
2022-08-17T08:10:32.243Z,4
2022-08-17T08:12:33.667Z,4
2022-08-17T08:13:32.365Z,4
2022-08-17T08:14:32.235Z,4
2022-08-17T08:15:32.236Z,4
2022-08-17T08:16:32.230Z,4
2022-08-17T08:17:32.235Z,4
2022-08-17T08:18:54.559Z,4
2022-08-17T08:19:32.242Z,5
2022-08-17T08:20:52.521Z,5
2022-08-17T08:21:32.237Z,4
2022-08-17T08:22:32.244Z,4
2022-08-17T08:23:32.246Z,4
2022-08-17T08:24:32.233Z,4
2022-08-17T08:25:32.244Z,5
2022-08-17T08:26:32.249Z,4
2022-08-17T08:27:32.246Z,5
2022-08-17T08:28:32.264Z,4
2022-08-17T08:29:32.252Z,4
2022-08-17T08:30:33.099Z,4
2022-08-17T08:31:32.240Z,4
2022-08-17T08:32:32.234Z,5
2022-08-17T08:33:32.244Z,4
2022-08-17T08:35:00.178Z,5
2022-08-17T08:35:32.243Z,5
2022-08-17T08:37:14.226Z,4
2022-08-17T08:37:34.794Z,5
2022-08-17T08:38:32.255Z,5
2022-08-17T08:39:32.315Z,5
2022-08-17T08:40:32.247Z,5
2022-08-17T08:41:32.248Z,5
2022-08-17T08:42:32.250Z,5
2022-08-17T08:43:32.253Z,5
2022-08-17T08:46:32.247Z,5
2022-08-17T08:47:35.402Z,5
2022-08-17T08:48:53.855Z,5
2022-08-17T08:51:32.251Z,5
2022-08-17T08:52:32.264Z,5
2022-08-17T08:53:32.253Z,5
2022-08-17T08:54:32.256Z,5
2022-08-17T08:55:32.260Z,6
2022-08-17T08:56:32.262Z,4
2022-08-17T08:58:41.588Z,5
2022-08-17T08:59:32.259Z,5
2022-08-17T09:00:32.252Z,5
2022-08-17T09:01:32.313Z,5
2022-08-17T09:02:34.640Z,5
2022-08-17T09:03:51.857Z,5
2022-08-17T09:04:40.687Z,5
2022-08-17T09:05:32.257Z,5
2022-08-17T09:06:38.808Z,5
2022-08-17T09:07:32.265Z,5
2022-08-17T09:08:32.269Z,6
2022-08-17T09:09:32.260Z,6
2022-08-17T09:11:32.268Z,6
2022-08-17T09:12:32.259Z,5
2022-08-17T09:13:32.267Z,5
2022-08-17T09:14:32.265Z,5
2022-08-17T09:15:32.260Z,5
2022-08-17T09:16:32.271Z,5
2022-08-17T09:17:32.267Z,6
2022-08-17T09:19:00.286Z,6
2022-08-17T09:19:32.274Z,6
2022-08-17T09:20:32.267Z,5
2022-08-17T09:21:33.842Z,6
2022-08-17T09:23:32.291Z,6
2022-08-17T09:24:32.270Z,6
2022-08-17T09:25:32.272Z,6
2022-08-17T09:35:32.930Z,6
2022-08-17T09:36:32.286Z,7
2022-08-17T09:37:33.964Z,6
2022-08-17T09:38:32.754Z,6
2022-08-17T09:39:32.355Z,6
2022-08-17T09:40:32.281Z,7
2022-08-17T09:41:32.281Z,7
2022-08-17T09:42:32.278Z,6
2022-08-17T09:43:32.279Z,7
2022-08-17T09:44:32.281Z,7
2022-08-17T09:45:32.287Z,7
2022-08-17T09:46:32.283Z,7
2022-08-17T09:47:32.284Z,6
2022-08-17T09:48:32.292Z,6
2022-08-17T09:49:32.283Z,7
2022-08-17T09:51:03.249Z,6
2022-08-17T09:51:32.461Z,6
2022-08-17T09:52:32.292Z,5
2022-08-17T09:53:32.321Z,7
2022-08-17T09:55:32.291Z,6
2022-08-17T09:56:32.292Z,6
2022-08-17T09:57:32.761Z,7
2022-08-17T09:58:32.294Z,6
2022-08-17T09:59:38.298Z,6
2022-08-17T10:00:32.288Z,7
2022-08-17T10:01:32.407Z,6
2022-08-17T10:02:32.286Z,6
2022-08-17T10:03:32.293Z,6
2022-08-17T10:04:32.291Z,6
2022-08-17T10:05:32.295Z,7
2022-08-17T10:06:32.288Z,7
2022-08-17T10:07:32.308Z,7
2022-08-17T10:08:32.291Z,7
2022-08-17T10:09:32.296Z,7
2022-08-17T10:11:33.766Z,7
2022-08-17T10:12:32.293Z,7
2022-08-17T10:13:32.295Z,7
2022-08-17T10:14:37.471Z,7
2022-08-17T10:15:32.308Z,7
2022-08-17T10:16:32.293Z,6
2022-08-17T10:17:32.313Z,7
2022-08-17T10:18:33.329Z,7
2022-08-17T10:19:32.304Z,7
2022-08-17T10:20:32.307Z,7
2022-08-17T10:21:32.332Z,8
2022-08-17T10:22:35.259Z,8
2022-08-17T10:23:32.347Z,7
2022-08-17T10:24:32.325Z,8
2022-08-17T10:25:49.095Z,8
2022-08-17T10:26:46.308Z,8
2022-08-17T10:27:32.309Z,8
2022-08-17T10:28:32.302Z,8
2022-08-17T10:29:46.241Z,8
2022-08-17T10:30:32.307Z,7
2022-08-17T10:31:35.065Z,7
2022-08-17T10:32:32.320Z,8
2022-08-17T10:33:32.315Z,7
2022-08-17T10:34:40.371Z,7
2022-08-17T10:35:32.314Z,7
2022-08-17T10:36:32.311Z,7
2022-08-17T10:37:32.306Z,7
2022-08-17T10:38:32.310Z,8
2022-08-17T10:39:32.371Z,8
2022-08-17T10:40:32.534Z,8
2022-08-17T10:41:35.722Z,9
2022-08-17T10:42:32.939Z,9
2022-08-17T10:43:32.318Z,9
2022-08-17T10:44:39.757Z,9
2022-08-17T10:45:32.315Z,9
2022-08-17T10:46:32.313Z,10
2022-08-17T10:47:42.346Z,10
2022-08-17T10:48:32.315Z,11
2022-08-17T10:50:32.318Z,11
2022-08-17T10:51:32.319Z,10
2022-08-17T10:52:32.310Z,10
2022-08-17T10:54:32.741Z,11
2022-08-17T10:55:32.320Z,10
2022-08-17T10:56:32.322Z,10
2022-08-17T10:57:32.330Z,10
2022-08-17T10:59:32.323Z,12
2022-08-17T11:00:32.322Z,12
2022-08-17T11:01:32.416Z,13
2022-08-17T11:02:32.328Z,13
2022-08-17T11:03:32.330Z,12
2022-08-17T11:04:32.319Z,12
2022-08-17T11:05:32.329Z,12
2022-08-17T11:06:32.330Z,12
2022-08-17T11:07:32.328Z,13
2022-08-17T11:08:32.329Z,13
2022-08-17T11:09:32.335Z,13
2022-08-17T11:10:32.328Z,15
2022-08-17T11:11:32.330Z,13
2022-08-17T11:12:32.328Z,15
2022-08-17T11:13:32.331Z,14
2022-08-17T11:15:32.334Z,16
2022-08-17T11:16:32.332Z,15
2022-08-17T11:17:32.336Z,16
2022-08-17T11:18:32.339Z,16
2022-08-17T11:19:32.332Z,16
2022-08-17T11:20:32.332Z,15
2022-08-17T11:21:32.339Z,15
2022-08-17T11:22:33.686Z,16
2022-08-17T11:23:32.338Z,17
2022-08-17T11:24:32.336Z,17
2022-08-17T11:25:32.343Z,17
2022-08-17T11:26:32.329Z,18
2022-08-17T11:27:32.342Z,19
2022-08-17T11:28:32.332Z,16
2022-08-17T11:29:32.335Z,15
2022-08-17T11:30:32.335Z,17
2022-08-17T11:31:38.539Z,16
2022-08-17T11:32:32.332Z,20
2022-08-17T11:33:32.338Z,20
2022-08-17T11:34:32.334Z,18
2022-08-17T11:35:32.345Z,18
2022-08-17T11:36:32.352Z,17
2022-08-17T11:37:32.340Z,17
2022-08-17T11:38:32.349Z,18
2022-08-17T11:39:32.449Z,18
2022-08-17T11:41:32.343Z,18
2022-08-17T11:42:32.343Z,19
2022-08-17T11:43:32.341Z,20
2022-08-17T11:44:32.347Z,18
2022-08-17T11:45:33.101Z,20
2022-08-17T11:47:32.353Z,20
2022-08-17T11:48:32.584Z,20
2022-08-17T11:49:32.346Z,20
2022-08-17T11:50:32.346Z,20
2022-08-17T11:51:32.344Z,21
2022-08-17T11:52:32.350Z,21
2022-08-17T11:54:34.136Z,18
2022-08-17T11:56:32.356Z,20
2022-08-17T11:57:32.354Z,21
2022-08-17T11:58:32.346Z,23
2022-08-17T11:59:32.362Z,21
2022-08-17T12:00:32.354Z,22
2022-08-17T12:01:32.348Z,20
2022-08-17T12:02:32.749Z,21
2022-08-17T12:03:32.456Z,19
2022-08-17T12:04:32.453Z,22
2022-08-17T12:05:32.352Z,23
2022-08-17T12:06:32.347Z,21
2022-08-17T12:07:32.353Z,22
2022-08-17T12:08:32.346Z,21
2022-08-17T12:09:32.350Z,22
2022-08-17T12:10:32.358Z,22
2022-08-17T12:12:01.541Z,23
2022-08-17T12:12:32.358Z,24
2022-08-17T12:13:34.660Z,23
2022-08-17T12:15:05.893Z,23
2022-08-17T12:15:32.358Z,23
2022-08-17T12:16:32.351Z,23
2022-08-17T12:17:41.030Z,21
2022-08-17T12:18:32.357Z,23
2022-08-17T12:19:32.364Z,22
2022-08-17T12:20:32.370Z,24
2022-08-17T12:21:32.373Z,22
2022-08-17T12:22:32.361Z,21
2022-08-17T12:23:32.391Z,23
2022-08-17T12:24:32.368Z,21
2022-08-17T12:25:32.369Z,23
2022-08-17T12:26:32.367Z,22
2022-08-17T12:27:46.186Z,20
2022-08-17T12:28:32.373Z,25
2022-08-17T12:29:35.427Z,24
2022-08-17T12:30:32.366Z,24
2022-08-17T12:31:32.365Z,25
2022-08-17T12:32:32.370Z,24
2022-08-17T12:33:32.363Z,23
2022-08-17T12:34:32.368Z,26
2022-08-17T12:35:32.368Z,25
2022-08-17T12:36:32.374Z,25
2022-08-17T12:37:32.384Z,27
2022-08-17T12:38:33.672Z,26
2022-08-17T12:41:32.376Z,26
2022-08-17T12:42:32.373Z,27
2022-08-17T12:43:32.384Z,27
2022-08-17T12:44:32.379Z,26
2022-08-17T12:45:32.383Z,28
2022-08-17T12:46:32.379Z,25
2022-08-17T12:47:32.378Z,25
2022-08-17T12:48:32.378Z,29
2022-08-17T12:50:32.376Z,27
2022-08-17T12:51:32.380Z,27
2022-08-17T12:52:32.375Z,28
2022-08-17T12:53:32.380Z,25
2022-08-17T12:54:32.382Z,25
2022-08-17T12:55:33.941Z,27
2022-08-17T12:56:32.385Z,26
2022-08-17T12:57:32.399Z,27
2022-08-17T12:58:32.387Z,25
2022-08-17T12:59:32.384Z,27
2022-08-17T13:00:32.381Z,27
2022-08-17T13:01:32.455Z,25
2022-08-17T13:02:32.385Z,26
2022-08-17T13:03:36.291Z,27
2022-08-17T13:04:32.386Z,30
2022-08-17T13:05:32.397Z,27
2022-08-17T13:06:32.391Z,29
2022-08-17T13:07:32.396Z,31
2022-08-17T13:08:32.393Z,28
2022-08-17T13:09:35.408Z,26
2022-08-17T13:10:33.362Z,29
2022-08-17T13:11:32.384Z,29
2022-08-17T13:12:32.400Z,29
2022-08-17T13:13:32.398Z,30
2022-08-17T13:14:33.275Z,28
2022-08-17T13:15:32.383Z,26
2022-08-17T13:16:32.385Z,26
2022-08-17T13:17:32.398Z,29
2022-08-17T13:18:32.393Z,28
2022-08-17T13:19:40.764Z,30
2022-08-17T13:20:32.391Z,26
2022-08-17T13:21:32.392Z,29
2022-08-17T13:22:32.401Z,29
2022-08-17T13:23:32.554Z,27
2022-08-17T13:24:37.999Z,29
2022-08-17T13:25:32.396Z,27
2022-08-17T13:27:32.396Z,31
2022-08-17T13:28:36.335Z,30
2022-08-17T13:29:32.431Z,29
2022-08-17T13:30:32.399Z,32
2022-08-17T13:31:32.403Z,31
2022-08-17T13:32:33.468Z,29
2022-08-17T13:33:43.371Z,31
2022-08-17T13:34:33.317Z,29
2022-08-17T13:35:39.294Z,28
2022-08-17T13:36:32.395Z,29
2022-08-17T13:37:32.399Z,27
2022-08-17T13:38:32.407Z,24
2022-08-17T13:39:32.448Z,28
2022-08-17T13:40:32.406Z,25
2022-08-17T13:41:32.407Z,28
2022-08-17T13:42:32.415Z,28
2022-08-17T13:43:32.408Z,27
2022-08-17T13:44:32.402Z,26
2022-08-17T13:45:36.022Z,29
2022-08-17T13:46:32.411Z,26
2022-08-17T13:47:32.406Z,30
2022-08-17T13:48:32.418Z,30
2022-08-17T13:49:48.147Z,25
2022-08-17T13:50:32.404Z,25
2022-08-17T13:51:32.406Z,29
2022-08-17T13:52:32.417Z,29
2022-08-17T13:53:32.841Z,30
2022-08-17T13:54:32.417Z,29
2022-08-17T13:55:32.419Z,32
2022-08-17T13:56:38.318Z,25
2022-08-17T13:57:32.420Z,26
2022-08-17T13:58:32.421Z,32
2022-08-17T13:59:52.749Z,28
2022-08-17T14:00:32.418Z,26
2022-08-17T14:01:32.498Z,26
2022-08-17T14:02:32.419Z,31
2022-08-17T14:03:32.418Z,27
2022-08-17T14:04:32.419Z,28
2022-08-17T14:05:32.553Z,25
2022-08-17T14:06:53.021Z,26
2022-08-17T14:07:32.423Z,25
2022-08-17T14:08:32.426Z,25
2022-08-17T14:10:32.421Z,26
2022-08-17T14:11:32.423Z,25
2022-08-17T14:12:32.419Z,24
2022-08-17T14:14:32.458Z,24
2022-08-17T14:15:54.615Z,26
2022-08-17T14:16:32.424Z,24
2022-08-17T14:17:36.602Z,21
2022-08-17T14:18:55.807Z,21
2022-08-17T14:19:32.424Z,23
2022-08-17T14:20:32.424Z,23
2022-08-17T14:21:32.432Z,22
2022-08-17T14:23:32.430Z,23
2022-08-17T14:24:32.443Z,23
2022-08-17T14:25:32.439Z,26
2022-08-17T14:26:32.443Z,23
2022-08-17T14:27:32.438Z,22
2022-08-17T14:28:32.444Z,19
2022-08-17T14:29:32.429Z,17
2022-08-17T14:30:32.433Z,18
2022-08-17T14:32:32.434Z,19
2022-08-17T14:33:32.447Z,24
2022-08-17T14:34:32.438Z,19
2022-08-17T14:35:32.435Z,23
2022-08-17T14:36:32.435Z,24
2022-08-17T14:37:32.452Z,21
2022-08-17T14:38:32.443Z,25
2022-08-17T14:39:32.507Z,22
2022-08-17T14:40:32.438Z,21
2022-08-17T14:41:32.438Z,22
2022-08-17T14:42:32.454Z,25
2022-08-17T14:43:32.445Z,25
2022-08-17T14:44:32.451Z,26
2022-08-17T14:45:33.482Z,25
2022-08-17T14:46:32.461Z,21
2022-08-17T14:48:32.447Z,26
2022-08-17T14:49:32.449Z,24
2022-08-17T14:50:35.674Z,26
2022-08-17T14:51:32.449Z,23
2022-08-17T14:52:32.454Z,22
2022-08-17T14:53:32.447Z,16
2022-08-17T14:54:34.057Z,24
2022-08-17T14:55:32.516Z,23
2022-08-17T14:56:35.386Z,37
2022-08-17T14:57:33.638Z,25
2022-08-17T14:58:32.452Z,25
2022-08-17T14:59:32.453Z,29
2022-08-17T15:00:32.477Z,33
2022-08-17T15:01:32.523Z,29
2022-08-17T15:02:32.468Z,29
2022-08-17T15:03:32.452Z,28
2022-08-17T15:04:32.461Z,31
2022-08-17T15:05:32.481Z,31
2022-08-17T15:06:32.463Z,30
2022-08-17T15:07:32.474Z,32
2022-08-17T15:08:32.463Z,29
2022-08-17T15:09:32.457Z,32
2022-08-17T15:10:32.466Z,33
2022-08-17T15:11:32.458Z,32
2022-08-17T15:12:34.021Z,28
2022-08-17T15:13:32.523Z,33
2022-08-17T15:14:32.463Z,37
2022-08-17T15:15:32.462Z,39
2022-08-17T15:16:32.466Z,44
2022-08-17T15:17:44.578Z,42
2022-08-17T15:18:32.472Z,38
2022-08-17T15:19:32.466Z,40
2022-08-17T15:20:32.466Z,44
2022-08-17T15:21:32.467Z,38
2022-08-17T15:23:32.464Z,45
2022-08-17T15:24:32.473Z,45
2022-08-17T15:25:32.488Z,49
2022-08-17T15:27:33.008Z,41
2022-08-17T15:28:32.487Z,50
2022-08-17T15:29:32.479Z,49
2022-08-17T15:30:32.472Z,48
2022-08-17T15:31:32.644Z,43
2022-08-17T15:32:32.492Z,44
2022-08-17T15:33:32.466Z,45
2022-08-17T15:34:32.476Z,51
2022-08-17T15:36:32.467Z,48
2022-08-17T15:37:32.470Z,45
2022-08-17T15:38:32.471Z,49
2022-08-17T15:39:32.544Z,46
2022-08-17T15:40:32.475Z,50
2022-08-17T15:41:32.478Z,44